Time;durP1;ratioP1;P1;durP2;ratioP2;P2;SDS_P1;SDS_P2;PMS_P1;PMS_P2;Temp;Humidity;BMP_temperature;BMP_pressure;BME280_temperature;BME280_humidity;BME280_pressure;Samples;Min_cycle;Max_cycle;Signal;HPM_P1;HPM_P2
2022/03/11 00:09:28;;;;;;;3.93;3.57;;;;;;;-8.10;82.36;100903.56;31504222;28;20080;-79
2022/03/11 00:24:31;;;;;;;5.00;3.17;;;;;;;-8.16;81.64;100891.47;31501767;28;20055;-78
2022/03/11 00:39:33;;;;;;;3.00;2.77;;;;;;;-8.17;80.82;100882.00;31508216;28;20133;-79
2022/03/11 00:54:35;;;;;;;3.47;3.17;;;;;;;-8.29;82.99;100881.56;31471134;28;20060;-78
2022/03/11 01:09:37;;;;;;;6.13;3.57;;;;;;;-8.16;83.15;100870.41;31489016;28;20515;-79
2022/03/11 01:24:39;;;;;;;4.03;3.63;;;;;;;-8.03;83.04;100877.66;31472707;28;20057;-79
2022/03/11 01:39:56;;;;;;;3.40;3.10;;;;;;;-8.09;83.49;100868.25;31497038;28;20131;-79
2022/03/11 01:54:58;;;;;;;5.33;3.93;;;;;;;-7.99;83.61;100873.44;31474737;28;20533;-78
2022/03/11 02:10:00;;;;;;;4.30;3.73;;;;;;;-8.18;84.94;100874.38;31530337;28;20482;-78
2022/03/11 02:25:07;;;;;;;4.70;4.20;;;;;;;-8.01;84.95;100878.19;31494202;28;20054;-78
2022/03/11 02:40:10;;;;;;;3.33;2.93;;;;;;;-8.05;85.54;100879.81;31491058;28;20072;-78
2022/03/11 02:55:12;;;;;;;5.47;3.70;;;;;;;-7.89;85.54;100866.50;31501600;28;20071;-79
2022/03/11 03:10:21;;;;;;;3.37;3.13;;;;;;;-7.86;85.19;100881.78;31499061;28;20139;-78
2022/03/11 03:25:26;;;;;;;7.17;5.20;;;;;;;-7.71;87.41;100889.53;31479429;28;20055;-78
2022/03/11 03:40:57;;;;;;;6.93;4.13;;;;;;;-7.75;86.88;100901.69;31496981;28;20402;-79
2022/03/11 03:55:59;;;;;;;12.33;4.77;;;;;;;-7.78;86.68;100915.44;31493257;28;20048;-80
2022/03/11 04:11:02;;;;;;;8.43;5.63;;;;;;;-7.69;87.40;100908.50;31492037;28;20152;-79
2022/03/11 04:26:04;;;;;;;5.43;3.80;;;;;;;-7.53;86.12;100928.41;31485893;28;20087;-78
2022/03/11 04:41:06;;;;;;;4.70;4.20;;;;;;;-7.19;85.35;100940.75;31474841;28;20548;-79
2022/03/11 04:56:09;;;;;;;6.47;3.97;;;;;;;-6.87;83.76;100938.31;31491653;28;20057;-78
2022/03/11 05:11:15;;;;;;;12.33;4.40;;;;;;;-6.55;82.45;100946.34;31481357;28;20041;-79
2022/03/11 05:26:28;;;;;;;9.77;5.77;;;;;;;-6.20;81.20;100960.19;31496757;28;20059;-78
2022/03/11 05:41:31;;;;;;;4.20;3.47;;;;;;;-5.93;79.03;100986.78;31516124;28;20124;-80
2022/03/11 05:56:34;;;;;;;7.43;5.13;;;;;;;-5.26;75.54;100994.44;31488763;28;20431;-79
2022/03/11 06:11:36;;;;;;;6.37;4.00;;;;;;;-4.65;72.16;100990.69;31489153;28;20131;-78
2022/03/11 06:26:39;;;;;;;5.77;3.97;;;;;;;-3.65;66.53;100978.19;31507621;28;20048;-79
2022/03/11 06:41:42;;;;;;;8.87;4.20;;;;;;;-3.32;62.73;100962.81;31510112;28;20055;-79
2022/03/11 06:56:44;;;;;;;4.43;3.47;;;;;;;-3.88;63.80;100954.31;31489917;28;20412;-78
2022/03/11 07:11:46;;;;;;;6.27;4.27;;;;;;;-3.26;63.23;100980.94;31500923;28;20048;-79
2022/03/11 07:26:49;;;;;;;5.03;3.63;;;;;;;-3.91;66.04;100980.66;31486780;28;20425;-79
2022/03/11 07:41:51;;;;;;;8.83;5.57;;;;;;;-2.53;63.12;100982.19;31493644;28;20055;-79
2022/03/11 07:56:53;;;;;;;10.33;5.13;;;;;;;-2.52;60.60;100989.09;31510407;28;20084;-78
2022/03/11 08:11:55;;;;;;;7.90;4.30;;;;;;;-0.86;56.46;100978.03;31492969;28;20056;-79
2022/03/11 08:26:57;;;;;;;9.90;5.20;;;;;;;-1.87;60.42;100982.13;31483543;28;20048;-81
2022/03/11 08:42:00;;;;;;;6.40;3.97;;;;;;;-2.65;61.50;101000.63;31507381;28;20055;-81
2022/03/11 08:57:03;;;;;;;8.70;4.93;;;;;;;-2.68;61.54;100998.56;31498415;28;20062;-80
2022/03/11 09:12:05;;;;;;;7.13;4.53;;;;;;;-2.70;63.56;101014.03;31495110;28;20503;-79
2022/03/11 09:27:09;;;;;;;5.93;3.17;;;;;;;-2.96;64.72;101015.78;31500269;28;20052;-83
2022/03/11 09:42:33;;;;;;;18.23;6.87;;;;;;;-2.64;67.21;101023.47;31481266;28;20048;-86
2022/03/11 09:57:35;;;;;;;10.33;5.17;;;;;;;-2.62;69.00;101031.91;31506205;28;20053;-82
2022/03/11 10:12:43;;;;;;;8.43;5.17;;;;;;;-2.68;72.82;101025.16;31524704;28;20052;-81
2022/03/11 10:27:57;;;;;;;12.33;6.10;;;;;;;-3.39;79.43;101040.22;31524241;28;20695;-82
2022/03/11 10:43:17;;;;;;;7.13;4.13;;;;;;;-3.67;78.08;101033.44;31532469;28;20131;-83
2022/03/11 10:58:27;;;;;;;10.57;6.37;;;;;;;-3.40;75.44;101019.28;31515082;28;20144;-84
2022/03/11 11:13:37;;;;;;;8.27;4.80;;;;;;;-2.73;70.71;101014.66;31516064;28;20048;-83
2022/03/11 11:28:40;;;;;;;6.63;4.67;;;;;;;-2.93;71.29;101012.53;31484367;28;20550;-80
2022/03/11 11:43:53;;;;;;;7.20;4.13;;;;;;;-1.95;65.46;101002.34;31485792;28;20446;-82
2022/03/11 11:58:57;;;;;;;9.07;5.17;;;;;;;-2.01;65.79;101046.16;31487999;28;20056;-81
2022/03/11 12:14:02;;;;;;;8.33;5.23;;;;;;;-2.99;71.43;101033.13;31466548;28;20067;-84
2022/03/11 12:29:44;;;;;;;3.40;2.47;;;;;;;-3.42;76.12;101066.59;31483659;28;20048;-79
2022/03/11 12:45:11;;;;;;;11.73;5.53;;;;;;;-3.53;74.96;101072.13;31495580;28;20165;-81
2022/03/11 13:00:22;;;;;;;7.03;5.20;;;;;;;-3.34;76.52;101079.94;31500125;28;20500;-82
2022/03/11 13:15:27;;;;;;;11.20;5.57;;;;;;;-3.18;76.32;101081.16;31513109;28;20052;-79
2022/03/11 13:30:40;;;;;;;8.10;4.70;;;;;;;-3.22;75.68;101082.81;31507604;28;20607;-83
2022/03/11 13:45:51;;;;;;;8.93;4.90;;;;;;;-3.17;76.14;101093.34;31522535;28;20500;-81
2022/03/11 14:00:57;;;;;;;15.33;6.37;;;;;;;-3.40;76.77;101115.66;31504600;28;20044;-86
2022/03/11 14:16:07;;;;;;;10.73;6.27;;;;;;;-3.45;76.15;101144.97;31468526;28;20098;-80
2022/03/11 14:31:09;;;;;;;10.07;5.47;;;;;;;-3.46;77.29;101148.69;31525024;28;20045;-83
2022/03/11 14:46:29;;;;;;;9.47;5.97;;;;;;;-3.79;77.24;101158.69;31509976;28;20048;-81
2022/03/11 15:01:31;;;;;;;10.67;5.90;;;;;;;-4.00;77.10;101184.81;31522233;28;20106;-83
2022/03/11 15:16:34;;;;;;;9.17;4.43;;;;;;;-4.02;76.89;101186.22;31515486;28;20052;-80
2022/03/11 15:31:36;;;;;;;6.47;4.27;;;;;;;-4.33;78.41;101207.97;31495212;28;20048;-78
2022/03/11 15:46:38;;;;;;;7.37;5.00;;;;;;;-4.37;77.60;101216.78;31488930;28;20036;-77
2022/03/11 16:01:41;;;;;;;8.20;5.13;;;;;;;-4.63;78.18;101240.25;31478384;28;20063;-76
2022/03/11 16:16:43;;;;;;;8.90;5.87;;;;;;;-4.70;79.35;101245.13;31471497;28;20059;-79
2022/03/11 16:31:46;;;;;;;8.47;4.87;;;;;;;-4.59;78.36;101257.94;31470843;28;20083;-78
2022/03/11 16:47:08;;;;;;;6.60;4.80;;;;;;;-4.97;78.55;101283.66;31483893;28;20148;-79
2022/03/11 17:02:14;;;;;;;10.33;6.07;;;;;;;-5.03;77.10;101289.31;31497804;28;20052;-78
2022/03/11 17:17:16;;;;;;;10.03;5.90;;;;;;;-5.13;78.32;101295.50;31500889;28;20055;-78
2022/03/11 17:32:19;;;;;;;8.83;5.60;;;;;;;-5.20;78.02;101295.88;31491823;28;20053;-78
2022/03/11 17:47:23;;;;;;;6.60;5.27;;;;;;;-5.40;77.44;101311.97;31507442;28;20492;-78
2022/03/11 18:02:25;;;;;;;7.43;4.70;;;;;;;-5.51;78.52;101305.22;31503777;28;20135;-79
2022/03/11 18:17:33;;;;;;;7.60;3.90;;;;;;;-5.63;78.15;101296.88;31505218;28;20127;-77
2022/03/11 18:32:35;;;;;;;5.57;3.40;;;;;;;-5.79;79.19;101320.03;31503979;28;20050;-77
2022/03/11 18:47:38;;;;;;;5.00;4.23;;;;;;;-5.78;78.53;101336.69;31490990;28;20048;-77
2022/03/11 19:02:40;;;;;;;6.50;4.20;;;;;;;-5.89;80.31;101325.44;31493034;28;20049;-78
2022/03/11 19:17:43;;;;;;;7.07;5.20;;;;;;;-5.97;81.99;101324.22;31485456;28;20052;-79
2022/03/11 19:32:48;;;;;;;4.37;3.60;;;;;;;-5.75;82.68;101325.56;31484484;28;20049;-81
2022/03/11 19:47:50;;;;;;;5.00;4.13;;;;;;;-5.79;82.27;101322.69;31467268;28;20059;-80
2022/03/11 20:02:56;;;;;;;5.03;4.10;;;;;;;-6.15;80.40;101329.41;31492921;28;20052;-80
2022/03/11 20:17:59;;;;;;;7.70;4.17;;;;;;;-6.37;78.94;101340.38;31473970;28;20507;-82
2022/03/11 20:33:03;;;;;;;4.37;3.10;;;;;;;-6.82;78.96;101360.69;31491481;28;20040;-82
2022/03/11 20:48:06;;;;;;;11.40;5.10;;;;;;;-6.76;78.10;101327.94;31503408;28;20492;-82
2022/03/11 21:03:09;;;;;;;9.80;4.97;;;;;;;-6.85;78.48;101332.22;31516371;28;20500;-81
2022/03/11 21:18:49;;;;;;;7.20;4.77;;;;;;;-6.90;77.45;101342.78;31532101;28;20059;-81
2022/03/11 21:33:51;;;;;;;4.90;4.40;;;;;;;-7.04;76.95;101352.34;31539328;28;20048;-81
2022/03/11 21:48:57;;;;;;;3.80;2.87;;;;;;;-7.23;75.59;101355.59;31532079;28;20117;-83
2022/03/11 22:03:59;;;;;;;6.17;4.93;;;;;;;-7.22;75.79;101357.16;31565100;28;20301;-82
2022/03/11 22:19:08;;;;;;;4.07;3.03;;;;;;;-7.12;75.82;101363.47;31527265;28;20055;-81
2022/03/11 22:34:11;;;;;;;7.73;4.50;;;;;;;-7.11;75.91;101383.53;31509377;28;20139;-82
2022/03/11 22:49:16;;;;;;;6.73;4.83;;;;;;;-7.20;74.88;101383.28;31517276;28;20052;-82
2022/03/11 23:04:18;;;;;;;6.73;5.30;;;;;;;-7.19;74.42;101381.44;31519622;28;20110;-82
2022/03/11 23:19:20;;;;;;;11.70;5.57;;;;;;;-7.39;76.38;101398.91;31511449;28;20040;-80
2022/03/11 23:34:25;;;;;;;7.70;5.23;;;;;;;-7.53;75.35;101397.84;31500854;28;20052;-81
2022/03/11 23:49:32;;;;;;;14.67;6.50;;;;;;;-7.54;76.51;101372.53;31501851;28;20136;-81
